Terminal Aerodrome Forecast
Issued by NWS

Home | Current Version | Previous Version | Text Only | Print | Product List | Glossary On
Versions: 1 2 3 4 5 6 7 8 9 10 11 12 13 14 15
000
FTUS42 KMLB 272336 CCA
TAFTIX
TAF COR
KTIX 272336Z 2800/2824 14010KT P6SM SKC
     FM280400 17005KT P6SM SKC
     FM281700 14011G18KT P6SM FEW040
      AMD NOT SKED 2801/2811=

USA.gov is the U.S. government's official web portal to all federal, state and local government web resources and services.